createdAt,value
2022-10-01T00:02:41.328Z,100.00
2022-10-01T00:07:52.376Z,100.00
2022-10-01T00:12:57.059Z,100.00
2022-10-01T00:18:06.450Z,100.00
2022-10-01T00:23:24.883Z,100.00
2022-10-01T00:28:44.866Z,100.00
2022-10-01T00:33:49.927Z,100.00
2022-10-01T00:38:53.787Z,100.00
2022-10-01T00:44:00.550Z,100.00
2022-10-01T00:49:09.846Z,100.00
2022-10-01T00:54:23.386Z,100.00
2022-10-01T00:59:29.004Z,100.00
2022-10-01T01:04:33.352Z,100.00
2022-10-01T01:09:39.340Z,100.00
2022-10-01T01:15:10.909Z,100.00
2022-10-01T01:20:29.253Z,100.00
2022-10-01T01:25:50.374Z,100.00
2022-10-01T01:31:02.018Z,100.00
2022-10-01T01:36:10.285Z,100.00
2022-10-01T01:41:15.884Z,100.00
2022-10-01T01:46:20.424Z,100.00
2022-10-01T01:52:13.905Z,100.00
2022-10-01T01:57:20.782Z,100.00
2022-10-01T02:02:27.967Z,100.00
2022-10-01T02:07:35.603Z,100.00
2022-10-01T02:13:04.853Z,100.00
2022-10-01T02:18:16.870Z,100.00
2022-10-01T02:23:25.651Z,100.00
2022-10-01T02:28:31.692Z,100.00
2022-10-01T02:33:37.721Z,100.00
2022-10-01T02:38:42.855Z,100.00
2022-10-01T02:43:55.150Z,100.00
2022-10-01T02:49:00.384Z,100.00
2022-10-01T02:54:14.724Z,100.00
2022-10-01T02:59:18.160Z,100.00
2022-10-01T03:04:22.329Z,100.00
2022-10-01T03:09:27.205Z,100.00
2022-10-01T03:14:30.469Z,100.00
2022-10-01T03:19:34.414Z,100.00
2022-10-01T03:24:38.444Z,100.00
2022-10-01T03:29:41.722Z,100.00
2022-10-01T03:34:45.262Z,100.00
2022-10-01T03:39:48.706Z,100.00
2022-10-01T03:44:52.443Z,100.00
2022-10-01T03:49:55.791Z,100.00
2022-10-01T03:55:01.488Z,100.00
2022-10-01T04:00:05.228Z,100.00
2022-10-01T04:05:15.884Z,100.00
2022-10-01T04:10:19.445Z,100.00
2022-10-01T04:15:23.547Z,100.00
2022-10-01T04:20:26.914Z,100.00
2022-10-01T04:25:30.809Z,100.00
2022-10-01T04:30:38.483Z,100.00
2022-10-01T04:35:58.250Z,100.00
2022-10-01T04:41:01.491Z,100.00
2022-10-01T04:46:05.176Z,100.00
2022-10-01T04:51:08.713Z,100.00
2022-10-01T04:56:12.001Z,100.00
2022-10-01T05:01:20.438Z,100.00
2022-10-01T05:06:23.763Z,100.00
2022-10-01T05:11:27.135Z,100.00
2022-10-01T05:16:30.605Z,100.00
2022-10-01T05:21:36.905Z,100.00
2022-10-01T05:26:40.440Z,100.00
2022-10-01T05:31:46.681Z,100.00
2022-10-01T05:36:59.949Z,100.00
2022-10-01T05:42:07.623Z,100.00
2022-10-01T05:47:11.361Z,100.00
2022-10-01T05:52:16.867Z,100.00
2022-10-01T05:57:24.426Z,100.00
2022-10-01T06:02:29.170Z,100.00
2022-10-01T06:07:35.174Z,100.00
2022-10-01T06:12:42.486Z,100.00
2022-10-01T06:17:52.958Z,100.00
2022-10-01T06:22:57.785Z,100.00
2022-10-01T06:28:03.102Z,100.00
2022-10-01T06:33:17.413Z,100.00
2022-10-01T06:38:22.674Z,100.00
2022-10-01T06:43:29.157Z,100.00
2022-10-01T06:48:32.701Z,100.00
2022-10-01T06:53:38.619Z,100.00
2022-10-01T06:58:42.832Z,100.00
2022-10-01T07:03:46.959Z,100.00
2022-10-01T07:08:50.643Z,100.00
2022-10-01T07:13:54.849Z,100.00
2022-10-01T07:18:58.408Z,100.00
2022-10-01T07:24:02.871Z,100.00
2022-10-01T07:29:07.193Z,100.00
2022-10-01T07:34:10.458Z,100.00
2022-10-01T07:39:13.926Z,100.00
2022-10-01T07:44:20.355Z,100.00
2022-10-01T07:49:27.075Z,100.00
2022-10-01T07:54:33.107Z,100.00
2022-10-01T07:59:36.994Z,100.00
2022-10-01T08:05:03.099Z,100.00
2022-10-01T08:10:12.208Z,100.00
2022-10-01T08:15:21.191Z,100.00
2022-10-01T08:20:28.964Z,100.00
2022-10-01T08:25:35.760Z,100.00
2022-10-01T08:30:40.397Z,100.00
2022-10-01T08:35:43.981Z,100.00
2022-10-01T08:40:51.685Z,100.00
2022-10-01T08:46:00.181Z,100.00
2022-10-01T08:51:31.519Z,100.00
2022-10-01T08:56:37.218Z,100.00
2022-10-01T09:01:41.490Z,100.00
2022-10-01T09:06:48.057Z,100.00
2022-10-01T09:12:36.432Z,100.00
2022-10-01T09:18:26.054Z,100.00
2022-10-01T09:23:32.383Z,100.00
2022-10-01T09:28:39.169Z,100.00
2022-10-01T09:33:46.898Z,100.00
2022-10-01T09:39:27.429Z,100.00
2022-10-01T09:44:31.938Z,100.00
2022-10-01T09:49:44.233Z,100.00
2022-10-01T09:55:04.801Z,100.00
2022-10-01T10:00:11.287Z,100.00
2022-10-01T10:05:16.471Z,100.00
2022-10-01T10:10:35.859Z,100.00
2022-10-01T10:15:49.913Z,100.00
2022-10-01T10:20:54.409Z,99.94
2022-10-01T10:26:06.464Z,99.36
2022-10-01T10:31:31.841Z,99.84
2022-10-01T10:36:38.814Z,99.29
2022-10-01T10:41:45.170Z,99.03
2022-10-01T10:46:49.869Z,98.73
2022-10-01T10:51:55.186Z,97.89
2022-10-01T10:57:24.415Z,96.74
2022-10-01T11:02:30.866Z,95.48
2022-10-01T11:07:37.679Z,96.40
2022-10-01T11:13:11.353Z,95.89
2022-10-01T11:18:44.551Z,95.39
2022-10-01T11:24:10.792Z,94.53
2022-10-01T11:29:25.861Z,93.62
2022-10-01T11:34:43.453Z,94.00
2022-10-01T11:39:52.229Z,94.12
2022-10-01T11:45:03.551Z,94.17
2022-10-01T11:50:19.153Z,94.39
2022-10-01T11:56:24.104Z,93.04
2022-10-01T12:01:58.550Z,90.53
2022-10-01T12:07:37.209Z,89.68
2022-10-01T12:13:30.845Z,88.77
2022-10-01T12:19:07.887Z,88.03
2022-10-01T12:24:14.797Z,88.11
2022-10-01T12:29:50.687Z,87.59
2022-10-01T12:35:31.640Z,86.99
2022-10-01T12:40:57.229Z,85.57
2022-10-01T12:46:45.569Z,84.45
2022-10-01T12:52:06.699Z,83.94
2022-10-01T12:57:23.320Z,84.12
2022-10-01T13:02:55.963Z,83.58
2022-10-01T13:08:19.462Z,83.57
2022-10-01T13:13:27.094Z,83.82
2022-10-01T13:18:38.701Z,83.08
2022-10-01T13:24:03.742Z,82.23
2022-10-01T13:29:13.163Z,81.18
2022-10-01T13:34:37.191Z,81.43
2022-10-01T13:39:43.766Z,79.86
2022-10-01T13:44:53.392Z,79.13
2022-10-01T13:50:25.430Z,78.66
2022-10-01T13:55:31.252Z,78.70
2022-10-01T14:00:58.081Z,79.02
2022-10-01T14:06:03.897Z,78.95
2022-10-01T14:11:31.504Z,78.60
2022-10-01T14:16:44.543Z,78.58
2022-10-01T14:22:25.667Z,78.54
2022-10-01T14:27:57.303Z,77.90
2022-10-01T14:33:28.810Z,77.60
2022-10-01T14:38:35.076Z,77.99
2022-10-01T14:43:39.948Z,78.04
2022-10-01T14:48:59.172Z,77.91
2022-10-01T14:54:03.901Z,78.34
2022-10-01T14:59:09.027Z,78.22
2022-10-01T15:04:20.741Z,78.27
2022-10-01T15:09:25.131Z,79.48
2022-10-01T15:14:29.356Z,81.02
2022-10-01T15:19:38.148Z,81.97
2022-10-01T15:24:46.944Z,82.97
2022-10-01T15:29:57.400Z,83.94
2022-10-01T15:35:03.730Z,84.88
2022-10-01T15:40:25.477Z,85.57
2022-10-01T15:46:15.266Z,86.14
2022-10-01T15:51:28.615Z,86.85
2022-10-01T15:56:37.064Z,87.48
2022-10-01T16:01:47.769Z,88.05
2022-10-01T16:07:01.721Z,88.60
2022-10-01T16:12:11.950Z,89.14
2022-10-01T16:17:16.993Z,89.25
2022-10-01T16:22:30.854Z,88.92
2022-10-01T16:27:53.582Z,88.93
2022-10-01T16:33:06.343Z,88.97
2022-10-01T16:38:13.011Z,89.08
2022-10-01T16:43:22.780Z,89.26
2022-10-01T16:48:26.376Z,89.40
2022-10-01T16:53:44.234Z,89.74
2022-10-01T16:59:00.548Z,90.08
2022-10-01T17:04:03.968Z,90.09
2022-10-01T17:09:08.066Z,90.51
2022-10-01T17:14:17.630Z,90.76
2022-10-01T17:19:22.264Z,90.97
2022-10-01T17:24:25.735Z,91.25
2022-10-01T17:29:31.224Z,91.45
2022-10-01T17:34:41.640Z,91.51
2022-10-01T17:39:45.452Z,91.93
2022-10-01T17:44:51.774Z,92.10
2022-10-01T17:49:58.253Z,92.28
2022-10-01T17:55:01.872Z,92.61
2022-10-01T18:00:07.178Z,92.81
2022-10-01T18:05:18.052Z,92.99
2022-10-01T18:10:21.898Z,93.12
2022-10-01T18:15:30.095Z,93.10
2022-10-01T18:20:41.632Z,93.24
2022-10-01T18:26:01.743Z,93.33
2022-10-01T18:31:35.122Z,93.51
2022-10-01T18:43:08.023Z,93.94
2022-10-01T18:48:38.375Z,94.10
2022-10-01T18:54:21.614Z,94.34
2022-10-01T19:00:09.731Z,94.57
2022-10-01T19:05:51.932Z,94.78
2022-10-01T19:12:00.930Z,95.08
2022-10-01T19:17:41.745Z,95.29
2022-10-01T19:23:11.685Z,95.69
2022-10-01T19:28:55.484Z,95.96
2022-10-01T19:34:18.996Z,96.45
2022-10-01T19:39:41.580Z,96.91
2022-10-01T19:44:56.993Z,97.04
2022-10-01T19:50:07.890Z,97.38
2022-10-01T19:55:18.946Z,97.64
2022-10-01T20:00:24.188Z,97.90
2022-10-01T20:05:55.322Z,98.10
2022-10-01T20:11:10.795Z,98.16
2022-10-01T20:16:38.276Z,98.20
2022-10-01T20:22:14.307Z,98.39
2022-10-01T20:28:10.518Z,98.68
2022-10-01T20:33:43.472Z,98.89
2022-10-01T20:39:25.527Z,99.09
2022-10-01T20:44:35.929Z,99.19
2022-10-01T20:50:12.720Z,99.38
2022-10-01T20:55:29.555Z,99.48
2022-10-01T21:00:49.953Z,99.62
2022-10-01T21:06:24.890Z,99.84
2022-10-01T21:11:45.429Z,99.97
2022-10-01T21:17:02.307Z,99.89
2022-10-01T21:22:52.971Z,99.88
2022-10-01T21:28:02.009Z,99.90
2022-10-01T21:33:44.576Z,99.91
2022-10-01T21:38:57.504Z,100.00
2022-10-01T21:44:10.833Z,100.00
2022-10-01T21:49:46.087Z,100.00
2022-10-01T21:55:37.696Z,100.00
2022-10-01T22:00:56.450Z,100.00
2022-10-01T22:06:18.762Z,100.00
2022-10-01T22:11:28.975Z,100.00
2022-10-01T22:16:44.280Z,100.00
2022-10-01T22:21:59.378Z,100.00
2022-10-01T22:27:16.604Z,100.00
2022-10-01T22:32:23.689Z,100.00
2022-10-01T22:37:54.688Z,100.00
2022-10-01T22:43:08.181Z,100.00
2022-10-01T22:48:18.350Z,100.00
2022-10-01T22:53:52.014Z,100.00
2022-10-01T22:59:16.811Z,100.00
2022-10-01T23:04:27.242Z,100.00
2022-10-01T23:09:53.661Z,100.00
2022-10-01T23:15:08.061Z,100.00
2022-10-01T23:20:24.335Z,100.00
2022-10-01T23:25:48.595Z,100.00
2022-10-01T23:31:26.018Z,100.00
2022-10-01T23:37:02.659Z,100.00
2022-10-01T23:42:28.807Z,100.00
2022-10-01T23:47:55.585Z,100.00
2022-10-01T23:53:10.680Z,100.00
2022-10-01T23:58:15.428Z,100.00
